GRL25 BGJN-BGAA

Flight info

Callsign GRL25
Flight time 0h 28m
Altitude 8000
Route DCT ASMOD DCT USEPO DCT
Aircraft C208/L-SDFGR/C

Departure

Time 2026-04-26 06:57
Airport Ilulissat Airport (BGJN)

Arrival

Time 2026-04-26 07:25
Airport Aasiaat Airport (BGAA)
Time Latitude Longitude Altitude Speed Heading
2026-04-26 06:39 69.24095 -51.06558 98 ft 0 kts 236°
2026-04-26 06:52 69.24101 -51.06535 97 ft 2 kts 235°
2026-04-26 06:53 69.24111 -51.06498 96 ft 2 kts 221°
2026-04-26 06:53 69.24117 -51.06493 97 ft 0 kts 152°
2026-04-26 06:54 69.24094 -51.06438 97 ft 10 kts 137°
2026-04-26 06:55 69.24088 -51.06422 97 ft 0 kts 136°
2026-04-26 06:55 69.24087 -51.06420 97 ft 2 kts 136°
2026-04-26 06:55 69.24056 -51.06328 98 ft 0 kts 115°
2026-04-26 06:55 69.24056 -51.06327 98 ft 1 kts 120°
2026-04-26 06:56 69.24065 -51.06244 99 ft 4 kts 34°
2026-04-26 06:56 69.24066 -51.06242 99 ft 0 kts 36°
2026-04-26 06:56 69.24067 -51.06240 99 ft 2 kts 36°
2026-04-26 06:56 69.24185 -51.06005 96 ft 51 kts 34°
2026-04-26 06:57 69.24586 -51.05212 269 ft 80 kts 34°
2026-04-26 06:57 69.25104 -51.04511 585 ft 86 kts 12°
2026-04-26 06:57 69.25708 -51.05033 754 ft 98 kts 334°
2026-04-26 06:57 69.26078 -51.06530 1186 ft 98 kts 294°
2026-04-26 06:58 69.25843 -51.08439 1535 ft 116 kts 237°
2026-04-26 06:58 69.25078 -51.09538 1710 ft 136 kts 201°
2026-04-26 06:58 69.24146 -51.10085 1974 ft 135 kts 183°
2026-04-26 06:58 69.23237 -51.10289 2342 ft 128 kts 195°
2026-04-26 06:59 69.22469 -51.11714 2505 ft 147 kts 234°
2026-04-26 06:59 69.21752 -51.14001 2632 ft 156 kts 231°
2026-04-26 06:59 69.21054 -51.16214 3048 ft 147 kts 231°
2026-04-26 06:59 69.20399 -51.18265 3530 ft 135 kts 228°
2026-04-26 07:00 69.19792 -51.20154 4017 ft 126 kts 229°
2026-04-26 07:00 69.19223 -51.21945 4516 ft 119 kts 229°
2026-04-26 07:00 69.18683 -51.23635 4992 ft 113 kts 230°
2026-04-26 07:00 69.18167 -51.25264 5444 ft 111 kts 230°
2026-04-26 07:01 69.17655 -51.26864 5925 ft 109 kts 230°
2026-04-26 07:01 69.17158 -51.28426 6395 ft 108 kts 231°
2026-04-26 07:01 69.16659 -51.29989 6857 ft 107 kts 231°
2026-04-26 07:01 69.16165 -51.31544 7314 ft 106 kts 229°
2026-04-26 07:02 69.15674 -51.33076 7773 ft 105 kts 228°
2026-04-26 07:02 69.15163 -51.34684 7995 ft 124 kts 229°
2026-04-26 07:02 69.14532 -51.36678 8004 ft 146 kts 229°
2026-04-26 07:02 69.13836 -51.38869 8000 ft 157 kts 229°
2026-04-26 07:03 69.13089 -51.41205 8001 ft 164 kts 228°
2026-04-26 07:03 69.12316 -51.43609 8000 ft 167 kts 228°
2026-04-26 07:03 69.11539 -51.46030 8000 ft 168 kts 228°
2026-04-26 07:03 69.10755 -51.48469 8004 ft 168 kts 228°
2026-04-26 07:04 69.09974 -51.50901 8001 ft 168 kts 228°
2026-04-26 07:04 69.09191 -51.53336 8003 ft 167 kts 228°
2026-04-26 07:04 69.08421 -51.55730 8001 ft 164 kts 228°
2026-04-26 07:04 69.07660 -51.58088 8005 ft 162 kts 228°
2026-04-26 07:05 69.06905 -51.60425 8004 ft 161 kts 228°
2026-04-26 07:05 69.06155 -51.62747 8005 ft 161 kts 228°
2026-04-26 07:05 69.05418 -51.65025 8005 ft 159 kts 229°
2026-04-26 07:05 69.04675 -51.67315 8004 ft 158 kts 229°
2026-04-26 07:06 69.03924 -51.69631 8006 ft 163 kts 228°
2026-04-26 07:06 69.03154 -51.72004 7982 ft 167 kts 228°
2026-04-26 07:06 69.02347 -51.74490 7762 ft 175 kts 228°
2026-04-26 07:06 69.01539 -51.76984 7529 ft 169 kts 229°
2026-04-26 07:07 69.00760 -51.79377 7324 ft 164 kts 228°
2026-04-26 07:07 69.00008 -51.81682 7105 ft 162 kts 228°
2026-04-26 07:07 68.99254 -51.83992 6897 ft 161 kts 228°
2026-04-26 07:07 68.98501 -51.86294 6684 ft 160 kts 227°
2026-04-26 07:08 68.97752 -51.88580 6465 ft 160 kts 227°
2026-04-26 07:08 68.97003 -51.90866 6253 ft 160 kts 228°
2026-04-26 07:08 68.96254 -51.93150 6033 ft 159 kts 228°
2026-04-26 07:08 68.95518 -51.95394 5829 ft 154 kts 228°
2026-04-26 07:09 68.94804 -51.97565 5632 ft 150 kts 228°
2026-04-26 07:09 68.94109 -51.99679 5435 ft 147 kts 228°
2026-04-26 07:09 68.93418 -52.01774 5237 ft 148 kts 229°
2026-04-26 07:09 68.92716 -52.03900 5044 ft 150 kts 229°
2026-04-26 07:10 68.90562 -52.10424 4438 ft 154 kts 229°
2026-04-26 07:11 68.89101 -52.14837 4026 ft 157 kts 229°
2026-04-26 07:11 68.88360 -52.17073 3817 ft 158 kts 229°
2026-04-26 07:11 68.87613 -52.19319 3601 ft 159 kts 229°
2026-04-26 07:11 68.86861 -52.21582 3396 ft 160 kts 229°
2026-04-26 07:12 68.86107 -52.23848 3180 ft 160 kts 229°
2026-04-26 07:12 68.85359 -52.26095 2974 ft 162 kts 229°
2026-04-26 07:12 68.84596 -52.28383 2757 ft 160 kts 231°
2026-04-26 07:12 68.83808 -52.30543 2535 ft 160 kts 217°
2026-04-26 07:13 68.82808 -52.31618 2499 ft 150 kts 188°
2026-04-26 07:13 68.81812 -52.32011 2499 ft 141 kts 192°
2026-04-26 07:13 68.80871 -52.32391 2516 ft 134 kts 198°
2026-04-26 07:13 68.79960 -52.32788 2515 ft 131 kts 198°
2026-04-26 07:14 68.79066 -52.33166 2519 ft 128 kts 198°
2026-04-26 07:14 68.78191 -52.33538 2516 ft 127 kts 199°
2026-04-26 07:14 68.77324 -52.33901 2517 ft 126 kts 199°
2026-04-26 07:14 68.76462 -52.34277 2516 ft 124 kts 202°
2026-04-26 07:15 68.75744 -52.35305 2522 ft 111 kts 235°
2026-04-26 07:15 68.75301 -52.36974 2425 ft 107 kts 258°
2026-04-26 07:15 68.75119 -52.38964 2281 ft 111 kts 268°
2026-04-26 07:15 68.74966 -52.41093 2116 ft 114 kts 268°
2026-04-26 07:16 68.74807 -52.43241 2031 ft 112 kts 268°
2026-04-26 07:16 68.74657 -52.45262 2035 ft 105 kts 268°
2026-04-26 07:16 68.74512 -52.47191 2026 ft 101 kts 268°
2026-04-26 07:16 68.74375 -52.49030 2029 ft 93 kts 270°
2026-04-26 07:17 68.74250 -52.50729 2024 ft 88 kts 270°
2026-04-26 07:17 68.74127 -52.52395 2026 ft 90 kts 270°
2026-04-26 07:17 68.74003 -52.54109 2025 ft 93 kts 270°
2026-04-26 07:17 68.73870 -52.55933 1920 ft 101 kts 269°
2026-04-26 07:18 68.73730 -52.57842 1761 ft 99 kts 269°
2026-04-26 07:18 68.73596 -52.59621 1607 ft 91 kts 269°
2026-04-26 07:18 68.73475 -52.61263 1470 ft 84 kts 271°
2026-04-26 07:18 68.73361 -52.62815 1336 ft 82 kts 270°
2026-04-26 07:19 68.73249 -52.64257 1224 ft 74 kts 270°
2026-04-26 07:19 68.73147 -52.65658 1107 ft 75 kts 272°
2026-04-26 07:19 68.73043 -52.67057 981 ft 73 kts 272°
2026-04-26 07:19 68.72941 -52.68387 855 ft 70 kts 269°
2026-04-26 07:20 68.72844 -52.69691 736 ft 68 kts 272°
2026-04-26 07:20 68.72753 -52.70917 630 ft 65 kts 272°
2026-04-26 07:20 68.72657 -52.72174 523 ft 69 kts 270°
2026-04-26 07:20 68.72561 -52.73473 436 ft 66 kts 273°
2026-04-26 07:21 68.72464 -52.74625 318 ft 57 kts 276°
2026-04-26 07:21 68.72388 -52.75816 247 ft 67 kts 273°
2026-04-26 07:21 68.72277 -52.77005 173 ft 60 kts 282°
2026-04-26 07:21 68.72289 -52.78055 499 ft 59 kts 288°
2026-04-26 07:22 68.72232 -52.79318 721 ft 84 kts 278°
2026-04-26 07:22 68.72115 -52.81098 574 ft 91 kts 278°
2026-04-26 07:22 68.71857 -52.82632 650 ft 87 kts 258°
2026-04-26 07:22 68.71554 -52.84029 645 ft 84 kts 264°
2026-04-26 07:23 68.71208 -52.85346 677 ft 86 kts 254°
2026-04-26 07:23 68.70784 -52.86521 784 ft 74 kts 270°
2026-04-26 07:23 68.70985 -52.87427 970 ft 64 kts 313°
2026-04-26 07:23 68.71308 -52.88161 1038 ft 70 kts
2026-04-26 07:24 68.71558 -52.86768 868 ft 103 kts 92°
2026-04-26 07:24 68.71613 -52.84889 579 ft 94 kts 75°
2026-04-26 07:24 68.71787 -52.83232 462 ft 91 kts 56°
2026-04-26 07:24 68.71951 -52.81488 352 ft 97 kts 67°
2026-04-26 07:25 68.72092 -52.79691 116 ft 96 kts 63°
2026-04-26 07:25 68.72147 -52.79023 70 ft 0 kts 63°